createdAt,value
2019-06-07T00:00:37.262Z,98069.47
2019-06-07T00:04:21.471Z,98075.17
2019-06-07T00:08:29.196Z,98070.80
2019-06-07T00:12:35.079Z,98071.50
2019-06-07T00:16:41.008Z,98059.73
2019-06-07T00:20:46.735Z,98061.98
2019-06-07T00:24:52.502Z,98050.01
2019-06-07T00:28:58.625Z,98046.19
2019-06-07T00:33:04.528Z,98039.66
2019-06-07T00:37:11.175Z,98037.52
2019-06-07T00:41:19.324Z,98028.15
2019-06-07T00:45:25.238Z,98017.95
2019-06-07T00:49:40.448Z,98017.33
2019-06-07T00:53:38.591Z,98012.70
2019-06-07T00:57:44.773Z,98007.77
2019-06-07T01:01:50.538Z,98010.36
2019-06-07T01:05:57.242Z,98018.40
2019-06-07T01:10:03.721Z,98020.87
2019-06-07T01:14:09.628Z,98015.11
2019-06-07T01:22:28.400Z,98017.19
2019-06-07T01:26:30.631Z,98011.71
2019-06-07T01:30:36.616Z,98003.38
2019-06-07T01:34:42.331Z,98014.55
2019-06-07T01:38:48.151Z,98018.80
2019-06-07T01:42:54.228Z,98011.02
2019-06-07T01:47:00.125Z,98018.20
2019-06-07T01:51:05.906Z,98013.19
2019-06-07T01:55:13.013Z,98017.55
2019-06-07T01:59:21.948Z,98015.52
2019-06-07T02:03:32.174Z,98009.36
2019-06-07T02:07:33.840Z,98004.56
2019-06-07T02:11:39.594Z,98002.08
2019-06-07T02:15:45.475Z,98001.63
2019-06-07T02:19:51.195Z,98009.39
2019-06-07T02:23:56.988Z,97999.25
2019-06-07T02:28:26.676Z,97987.02
2019-06-07T02:32:10.140Z,97991.86
2019-06-07T02:36:15.993Z,97991.08
2019-06-07T02:40:22.087Z,97993.55
2019-06-07T02:44:32.163Z,97985.27
2019-06-07T02:48:39.900Z,97980.61
2019-06-07T02:52:42.977Z,97976.03
2019-06-07T03:01:06.697Z,97962.48
2019-06-07T03:05:04.066Z,97966.95
2019-06-07T03:09:10.339Z,97962.94
2019-06-07T03:13:20.182Z,97961.63
2019-06-07T03:17:38.325Z,97961.22
2019-06-07T03:21:43.563Z,97949.08
2019-06-07T03:25:52.533Z,97948.64
2019-06-07T03:29:58.405Z,97948.88
2019-06-07T03:34:04.209Z,97940.42
2019-06-07T03:38:09.936Z,97940.97
2019-06-07T03:42:15.803Z,97933.16
2019-06-07T03:46:21.579Z,97931.59
2019-06-07T03:50:30.609Z,97923.77
2019-06-07T03:54:37.011Z,97922.56
2019-06-07T03:58:49.490Z,97924.64
2019-06-07T04:02:49.704Z,97916.95
2019-06-07T04:06:55.420Z,97928.13
2019-06-07T04:11:01.169Z,97922.44
2019-06-07T04:15:08.163Z,97932.38
2019-06-07T04:19:13.860Z,97922.34
2019-06-07T04:23:29.880Z,97915.44
2019-06-07T04:27:27.973Z,97911.25
2019-06-07T04:31:36.294Z,97911.73
2019-06-07T04:35:43.337Z,97897.22
2019-06-07T04:39:50.435Z,97896.49
2019-06-07T04:43:59.522Z,97881.19
2019-06-07T04:48:07.490Z,97884.70
2019-06-07T04:52:15.127Z,97871.77
2019-06-07T04:56:20.933Z,97871.23
2019-06-07T05:00:58.439Z,97870.77
2019-06-07T05:04:44.065Z,97869.00
2019-06-07T05:08:49.992Z,97868.50
2019-06-07T05:12:55.774Z,97873.97
2019-06-07T05:17:01.594Z,97875.62
2019-06-07T05:21:07.384Z,97875.86
2019-06-07T05:25:13.217Z,97865.64
2019-06-07T05:29:19.133Z,97881.70
2019-06-07T05:33:25.338Z,97888.30
2019-06-07T05:37:32.550Z,97873.97
2019-06-07T05:41:42.740Z,97876.52
2019-06-07T05:45:47.226Z,97870.53
2019-06-07T05:49:53.263Z,97867.61
2019-06-07T05:53:59.110Z,97864.31
2019-06-07T05:58:05.072Z,97858.79
2019-06-07T06:02:22.251Z,97857.70
2019-06-07T06:06:19.458Z,97845.36
2019-06-07T06:10:25.258Z,97840.96
2019-06-07T06:14:31.049Z,97845.67
2019-06-07T06:18:38.033Z,97836.19
2019-06-07T06:22:48.126Z,97833.63
2019-06-07T06:26:57.019Z,97831.23
2019-06-07T06:30:58.892Z,97835.23
2019-06-07T06:35:07.084Z,97830.69
2019-06-07T06:39:12.968Z,97829.66
2019-06-07T06:43:18.786Z,97824.86
2019-06-07T06:47:24.598Z,97825.19
2019-06-07T06:51:30.380Z,97820.83
2019-06-07T06:55:36.186Z,97825.64
2019-06-07T06:59:43.691Z,97820.16
2019-06-07T07:04:07.270Z,97816.88
2019-06-07T07:07:57.195Z,97812.77
2019-06-07T07:12:12.057Z,97801.30
2019-06-07T07:16:10.623Z,97800.82
2019-06-07T07:20:16.656Z,97783.67
2019-06-07T07:24:22.654Z,97781.59
2019-06-07T07:28:28.659Z,97781.55
2019-06-07T07:32:35.162Z,97781.95
2019-06-07T07:36:40.940Z,97774.20
2019-06-07T07:41:14.024Z,97767.03
2019-06-07T07:44:56.536Z,97754.61
2019-06-07T07:49:01.980Z,97747.88
2019-06-07T07:53:08.702Z,97740.30
2019-06-07T07:57:14.411Z,97725.14
2019-06-07T08:01:20.132Z,97719.18
2019-06-07T08:05:41.830Z,97703.69
2019-06-07T08:09:33.659Z,97694.02
2019-06-07T08:17:41.562Z,97674.58
2019-06-07T08:21:48.928Z,97683.72
2019-06-07T08:25:57.311Z,97680.44
2019-06-07T08:30:35.317Z,97667.56
2019-06-07T08:34:11.447Z,97659.88
2019-06-07T08:38:29.804Z,97653.27
2019-06-07T08:42:36.570Z,97655.53
2019-06-07T08:46:32.327Z,97651.84
2019-06-07T08:50:38.123Z,97647.67
2019-06-07T08:54:44.472Z,97641.39
2019-06-07T08:58:54.961Z,97643.65
2019-06-07T09:03:02.841Z,97641.38
2019-06-07T09:07:18.779Z,97638.36
2019-06-07T09:11:13.475Z,97623.34
2019-06-07T09:15:23.621Z,97624.11
2019-06-07T09:19:27.156Z,97618.78
2019-06-07T09:23:32.886Z,97614.03
2019-06-07T09:27:39.319Z,97601.78
2019-06-07T09:31:53.710Z,97593.89
2019-06-07T09:35:52.602Z,97603.37
2019-06-07T09:40:05.577Z,97592.75
2019-06-07T09:44:21.474Z,97594.94
2019-06-07T09:48:23.930Z,97592.44
2019-06-07T09:52:20.966Z,97580.17
2019-06-07T09:56:26.754Z,97573.43
2019-06-07T10:00:41.038Z,97567.95
2019-06-07T10:04:40.019Z,97559.91
2019-06-07T10:10:08.239Z,97561.14
2019-06-07T10:12:53.609Z,97554.47
2019-06-07T10:17:00.827Z,97553.39
2019-06-07T10:21:07.816Z,97546.64
2019-06-07T10:25:14.652Z,97544.67
2019-06-07T10:29:21.113Z,97542.48
2019-06-07T10:33:27.082Z,97533.95
2019-06-07T10:37:32.804Z,97536.95
2019-06-07T10:41:38.526Z,97541.25
2019-06-07T10:45:44.316Z,97531.66
2019-06-07T10:49:51.036Z,97518.63
2019-06-07T10:53:56.759Z,97511.23
2019-06-07T10:58:02.816Z,97510.03
2019-06-07T11:02:09.728Z,97502.59
2019-06-07T11:06:17.135Z,97497.17
2019-06-07T11:10:24.303Z,97499.45
2019-06-07T11:14:30.262Z,97487.35
2019-06-07T11:18:35.979Z,97486.70
2019-06-07T11:22:41.696Z,97475.91
2019-06-07T11:26:47.522Z,97481.06
2019-06-07T11:30:53.490Z,97468.17
2019-06-07T11:34:59.205Z,97463.58
2019-06-07T11:39:08.424Z,97454.97
2019-06-07T11:43:14.932Z,97447.78
2019-06-07T11:47:20.752Z,97441.20
2019-06-07T11:51:28.973Z,97446.93
2019-06-07T11:55:34.840Z,97438.92
2019-06-07T11:59:40.545Z,97424.00
2019-06-07T12:03:46.617Z,97428.57
2019-06-07T12:07:52.340Z,97421.96
2019-06-07T12:11:58.125Z,97422.22
2019-06-07T12:16:03.924Z,97401.90
2019-06-07T12:20:14.270Z,97402.03
2019-06-07T12:24:21.143Z,97404.13
2019-06-07T12:28:27.007Z,97392.45
2019-06-07T12:32:32.732Z,97388.27
2019-06-07T12:36:39.510Z,97366.64
2019-06-07T12:40:57.192Z,97366.20
2019-06-07T12:44:53.673Z,97359.75
2019-06-07T12:48:59.400Z,97351.81
2019-06-07T12:53:05.743Z,97357.90
2019-06-07T12:57:11.497Z,97352.77
2019-06-07T13:01:18.270Z,97338.58
2019-06-07T13:05:24.221Z,97316.76
2019-06-07T13:09:30.480Z,97318.63
2019-06-07T13:13:36.571Z,97311.36
2019-06-07T13:17:42.279Z,97313.61
2019-06-07T13:21:49.540Z,97304.63
2019-06-07T13:25:55.524Z,97297.35
2019-06-07T13:30:09.946Z,97293.58
2019-06-07T13:34:11.389Z,97297.42
2019-06-07T13:38:26.765Z,97293.53
2019-06-07T13:42:33.728Z,97277.60
2019-06-07T13:46:39.447Z,97262.98
2019-06-07T13:50:45.415Z,97271.50
2019-06-07T13:54:51.675Z,97262.55
2019-06-07T13:58:57.783Z,97255.25
2019-06-07T14:03:03.540Z,97249.73
2019-06-07T14:07:09.397Z,97246.99
2019-06-07T14:11:15.248Z,97244.34
2019-06-07T14:15:22.318Z,97244.01
2019-06-07T14:19:28.719Z,97245.80
2019-06-07T14:23:47.991Z,97238.58
2019-06-07T14:27:42.043Z,97242.03
2019-06-07T14:31:47.953Z,97232.37
2019-06-07T14:35:53.653Z,97219.94
2019-06-07T14:39:59.406Z,97229.25
2019-06-07T14:44:06.217Z,97230.46
2019-06-07T14:48:12.016Z,97237.81
2019-06-07T14:52:17.732Z,97234.20
2019-06-07T14:56:24.795Z,97256.53
2019-06-07T15:00:40.641Z,97252.50
2019-06-07T15:04:48.589Z,97256.53
2019-06-07T15:08:54.452Z,97259.05
2019-06-07T15:13:00.155Z,97265.05
2019-06-07T15:17:05.921Z,97241.33
2019-06-07T15:21:11.730Z,97248.16
2019-06-07T15:25:17.626Z,97240.06
2019-06-07T15:29:23.352Z,97237.74
2019-06-07T15:33:29.717Z,97245.31
2019-06-07T15:37:36.674Z,97252.06
2019-06-07T15:41:42.385Z,97260.25
2019-06-07T15:45:48.183Z,97265.03
2019-06-07T15:49:54.057Z,97253.15
2019-06-07T15:53:59.774Z,97259.32
2019-06-07T15:58:05.655Z,97270.44
2019-06-07T16:02:11.499Z,97263.19
2019-06-07T16:06:19.614Z,97261.52
2019-06-07T16:10:25.874Z,97258.06
2019-06-07T16:14:33.101Z,97254.21
2019-06-07T16:18:39.694Z,97260.10
2019-06-07T16:22:45.468Z,97266.55
2019-06-07T16:26:51.215Z,97263.13
2019-06-07T16:30:56.988Z,97281.53
2019-06-07T16:35:02.783Z,97294.30
2019-06-07T16:39:09.988Z,97302.55
2019-06-07T16:43:17.942Z,97330.70
2019-06-07T16:47:23.140Z,97317.80
2019-06-07T16:51:28.881Z,97317.33
2019-06-07T16:55:34.584Z,97353.17
2019-06-07T16:59:40.933Z,97387.44
2019-06-07T17:03:47.639Z,97402.80
2019-06-07T17:07:53.492Z,97436.17
2019-06-07T17:11:59.210Z,97449.22
2019-06-07T17:16:06.019Z,97433.89
2019-06-07T17:20:12.576Z,97441.53
2019-06-07T17:24:18.367Z,97456.54
2019-06-07T17:28:24.191Z,97483.32
2019-06-07T17:32:29.919Z,97498.41
2019-06-07T17:36:35.644Z,97553.98
2019-06-07T17:40:42.693Z,97554.97
2019-06-07T17:44:49.251Z,97568.66
2019-06-07T17:48:55.277Z,97597.36
2019-06-07T17:53:00.975Z,97616.67
2019-06-07T17:57:06.731Z,97641.67
2019-06-07T18:01:12.452Z,97668.73
2019-06-07T18:05:19.804Z,97703.27
2019-06-07T18:09:26.619Z,97713.44
2019-06-07T18:13:32.348Z,97745.75
2019-06-07T18:17:38.140Z,97781.59
2019-06-07T18:21:44.989Z,97770.92
2019-06-07T18:25:50.751Z,97780.18
2019-06-07T18:29:56.542Z,97791.78
2019-06-07T18:34:02.317Z,97823.97
2019-06-07T18:38:10.743Z,97843.77
2019-06-07T18:42:15.635Z,97846.70
2019-06-07T18:46:22.541Z,97872.58
2019-06-07T18:50:28.259Z,97883.21
2019-06-07T18:54:33.996Z,97900.66
2019-06-07T18:58:39.853Z,97922.55
2019-06-07T19:02:45.597Z,97942.63
2019-06-07T19:06:52.232Z,97943.59
2019-06-07T19:10:58.998Z,97956.31
2019-06-07T19:15:11.738Z,97976.09
2019-06-07T19:19:17.629Z,97958.77
2019-06-07T19:23:23.332Z,97974.20
2019-06-07T19:27:32.596Z,97995.59
2019-06-07T19:31:36.960Z,98042.14
2019-06-07T19:35:42.673Z,98086.33
2019-06-07T19:39:48.368Z,98117.83
2019-06-07T19:43:54.271Z,98119.44
2019-06-07T19:48:00.795Z,98113.91
2019-06-07T19:52:06.663Z,98114.09
2019-06-07T19:56:13.423Z,98115.72
2019-06-07T20:00:21.156Z,98116.59
2019-06-07T20:04:26.892Z,98130.65
2019-06-07T20:08:32.649Z,98153.41
2019-06-07T20:12:38.386Z,98166.58
2019-06-07T20:16:44.114Z,98171.16
2019-06-07T20:20:49.888Z,98175.38
2019-06-07T20:25:29.534Z,98181.41
2019-06-07T20:29:35.325Z,98185.06
2019-06-07T20:33:41.264Z,98193.50
2019-06-07T20:37:46.981Z,98196.11
2019-06-07T20:41:52.868Z,98202.61
2019-06-07T20:46:00.709Z,98206.91
2019-06-07T20:50:09.500Z,98209.89
2019-06-07T20:54:15.271Z,98225.47
2019-06-07T20:58:20.999Z,98199.63
2019-06-07T21:02:26.725Z,98215.22
2019-06-07T21:06:32.513Z,98235.34
2019-06-07T21:10:38.345Z,98230.53
2019-06-07T21:14:44.130Z,98207.84
2019-06-07T21:18:49.855Z,98205.88
2019-06-07T21:22:55.565Z,98207.39
2019-06-07T21:27:01.716Z,98228.41
2019-06-07T21:31:10.487Z,98227.29
2019-06-07T21:35:16.575Z,98238.11
2019-06-07T21:39:22.280Z,98233.78
2019-06-07T21:43:28.002Z,98234.95
2019-06-07T21:47:33.724Z,98217.98
2019-06-07T21:51:39.531Z,98209.86
2019-06-07T21:55:45.250Z,98224.67
2019-06-07T21:59:50.959Z,98236.39
2019-06-07T22:03:56.882Z,98241.80
2019-06-07T22:08:03.708Z,98266.84
2019-06-07T22:12:10.130Z,98267.44
2019-06-07T22:16:26.234Z,98254.94
2019-06-07T22:20:23.220Z,98262.42
2019-06-07T22:24:28.953Z,98270.80
2019-06-07T22:28:34.651Z,98295.81
2019-06-07T22:32:40.473Z,98299.03
2019-06-07T22:36:47.351Z,98324.20
2019-06-07T22:40:53.092Z,98338.66
2019-06-07T22:44:58.821Z,98329.98
2019-06-07T22:49:04.626Z,98298.88
2019-06-07T22:53:11.379Z,98303.16
2019-06-07T22:57:27.710Z,98302.88
2019-06-07T23:01:33.471Z,98327.92
2019-06-07T23:05:39.200Z,98330.40
2019-06-07T23:09:44.940Z,98321.09
2019-06-07T23:13:50.639Z,98324.50
2019-06-07T23:17:56.414Z,98339.00
2019-06-07T23:22:02.196Z,98349.30
2019-06-07T23:26:10.016Z,98324.67
2019-06-07T23:30:16.650Z,98322.61
2019-06-07T23:34:22.434Z,98333.25
2019-06-07T23:38:28.146Z,98329.36
2019-06-07T23:42:33.849Z,98327.02
2019-06-07T23:46:39.582Z,98341.45
2019-06-07T23:50:45.298Z,98314.43
2019-06-07T23:54:51.028Z,98327.86
2019-06-07T23:58:57.019Z,98322.27
